sensor_id;sensor_type;location;lat;lon;timestamp;temperature;humidity
72128;DHT22;60000;51.030;7.024;2023-05-17T00:00:10;9.03;78.53
72128;DHT22;60000;51.030;7.024;2023-05-17T00:02:37;9.01;78.84
72128;DHT22;60000;51.030;7.024;2023-05-17T00:05:02;9.00;78.87
72128;DHT22;60000;51.030;7.024;2023-05-17T00:07:28;8.99;79.02
72128;DHT22;60000;51.030;7.024;2023-05-17T00:09:53;8.90;79.17
72128;DHT22;60000;51.030;7.024;2023-05-17T00:12:18;8.87;79.31
72128;DHT22;60000;51.030;7.024;2023-05-17T00:14:44;8.83;79.38
72128;DHT22;60000;51.030;7.024;2023-05-17T00:17:09;8.80;79.63
72128;DHT22;60000;51.030;7.024;2023-05-17T00:19:34;8.76;79.68
72128;DHT22;60000;51.030;7.024;2023-05-17T00:22:00;8.70;79.79
72128;DHT22;60000;51.030;7.024;2023-05-17T00:24:25;8.64;80.03
72128;DHT22;60000;51.030;7.024;2023-05-17T00:26:51;8.57;80.38
72128;DHT22;60000;51.030;7.024;2023-05-17T00:29:16;8.56;80.60
72128;DHT22;60000;51.030;7.024;2023-05-17T00:31:42;8.53;80.96
72128;DHT22;60000;51.030;7.024;2023-05-17T00:34:07;8.52;81.39
72128;DHT22;60000;51.030;7.024;2023-05-17T00:36:32;8.50;81.37
72128;DHT22;60000;51.030;7.024;2023-05-17T00:38:57;8.46;81.34
72128;DHT22;60000;51.030;7.024;2023-05-17T00:41:23;8.42;81.74
72128;DHT22;60000;51.030;7.024;2023-05-17T00:43:48;8.39;82.01
72128;DHT22;60000;51.030;7.024;2023-05-17T00:46:14;8.36;82.15
72128;DHT22;60000;51.030;7.024;2023-05-17T00:48:41;8.32;82.09
72128;DHT22;60000;51.030;7.024;2023-05-17T00:51:06;8.31;82.10
72128;DHT22;60000;51.030;7.024;2023-05-17T00:53:32;8.25;82.18
72128;DHT22;60000;51.030;7.024;2023-05-17T00:55:59;8.19;82.17
72128;DHT22;60000;51.030;7.024;2023-05-17T00:58:25;8.15;82.28
72128;DHT22;60000;51.030;7.024;2023-05-17T01:00:50;8.11;82.50
72128;DHT22;60000;51.030;7.024;2023-05-17T01:03:16;8.08;82.57
72128;DHT22;60000;51.030;7.024;2023-05-17T01:05:41;8.03;82.54
72128;DHT22;60000;51.030;7.024;2023-05-17T01:08:06;7.98;83.02
72128;DHT22;60000;51.030;7.024;2023-05-17T01:10:51;7.97;82.99
72128;DHT22;60000;51.030;7.024;2023-05-17T01:13:23;7.97;83.37
72128;DHT22;60000;51.030;7.024;2023-05-17T01:16:01;7.92;83.43
72128;DHT22;60000;51.030;7.024;2023-05-17T01:18:43;7.90;83.36
72128;DHT22;60000;51.030;7.024;2023-05-17T01:21:30;7.88;83.63
72128;DHT22;60000;51.030;7.024;2023-05-17T01:24:21;7.84;83.59
72128;DHT22;60000;51.030;7.024;2023-05-17T01:26:49;7.80;83.58
72128;DHT22;60000;51.030;7.024;2023-05-17T01:29:16;7.77;83.72
72128;DHT22;60000;51.030;7.024;2023-05-17T01:31:45;7.73;84.06
72128;DHT22;60000;51.030;7.024;2023-05-17T01:34:10;7.73;84.36
72128;DHT22;60000;51.030;7.024;2023-05-17T01:36:36;7.74;84.33
72128;DHT22;60000;51.030;7.024;2023-05-17T01:39:02;7.71;84.54
72128;DHT22;60000;51.030;7.024;2023-05-17T01:41:39;7.67;84.51
72128;DHT22;60000;51.030;7.024;2023-05-17T01:44:18;7.67;84.66
72128;DHT22;60000;51.030;7.024;2023-05-17T01:46:45;7.66;84.88
72128;DHT22;60000;51.030;7.024;2023-05-17T01:49:23;7.69;85.16
72128;DHT22;60000;51.030;7.024;2023-05-17T01:51:56;7.69;85.05
72128;DHT22;60000;51.030;7.024;2023-05-17T01:54:30;7.66;84.79
72128;DHT22;60000;51.030;7.024;2023-05-17T01:56:59;7.61;84.98
72128;DHT22;60000;51.030;7.024;2023-05-17T01:59:26;7.56;84.67
72128;DHT22;60000;51.030;7.024;2023-05-17T02:01:56;7.53;84.91
72128;DHT22;60000;51.030;7.024;2023-05-17T02:04:22;7.49;84.92
72128;DHT22;60000;51.030;7.024;2023-05-17T02:06:47;7.46;85.09
72128;DHT22;60000;51.030;7.024;2023-05-17T02:09:13;7.40;85.11
72128;DHT22;60000;51.030;7.024;2023-05-17T02:11:38;7.36;85.23
72128;DHT22;60000;51.030;7.024;2023-05-17T02:14:03;7.33;85.19
72128;DHT22;60000;51.030;7.024;2023-05-17T02:16:29;7.26;84.89
72128;DHT22;60000;51.030;7.024;2023-05-17T02:18:54;7.19;85.22
72128;DHT22;60000;51.030;7.024;2023-05-17T02:21:20;7.16;85.16
72128;DHT22;60000;51.030;7.024;2023-05-17T02:23:45;7.12;85.38
72128;DHT22;60000;51.030;7.024;2023-05-17T02:26:10;7.09;85.55
72128;DHT22;60000;51.030;7.024;2023-05-17T02:28:36;7.03;85.63
72128;DHT22;60000;51.030;7.024;2023-05-17T02:31:01;7.02;85.58
72128;DHT22;60000;51.030;7.024;2023-05-17T02:33:26;7.02;85.93
72128;DHT22;60000;51.030;7.024;2023-05-17T02:35:52;6.98;86.09
72128;DHT22;60000;51.030;7.024;2023-05-17T02:38:17;6.93;86.14
72128;DHT22;60000;51.030;7.024;2023-05-17T02:40:42;6.91;86.28
72128;DHT22;60000;51.030;7.024;2023-05-17T02:43:08;6.88;86.29
72128;DHT22;60000;51.030;7.024;2023-05-17T02:45:33;6.84;86.66
72128;DHT22;60000;51.030;7.024;2023-05-17T02:47:58;6.82;86.63
72128;DHT22;60000;51.030;7.024;2023-05-17T02:50:23;6.78;86.63
72128;DHT22;60000;51.030;7.024;2023-05-17T02:52:49;6.74;86.77
72128;DHT22;60000;51.030;7.024;2023-05-17T02:55:14;6.72;87.00
72128;DHT22;60000;51.030;7.024;2023-05-17T02:57:40;6.68;86.93
72128;DHT22;60000;51.030;7.024;2023-05-17T03:00:06;6.64;86.94
72128;DHT22;60000;51.030;7.024;2023-05-17T03:02:32;6.58;86.86
72128;DHT22;60000;51.030;7.024;2023-05-17T03:04:57;6.51;86.78
72128;DHT22;60000;51.030;7.024;2023-05-17T03:07:22;6.47;87.08
72128;DHT22;60000;51.030;7.024;2023-05-17T03:09:48;6.44;86.89
72128;DHT22;60000;51.030;7.024;2023-05-17T03:12:13;6.40;87.08
72128;DHT22;60000;51.030;7.024;2023-05-17T03:14:38;6.38;87.11
72128;DHT22;60000;51.030;7.024;2023-05-17T03:17:04;6.36;87.43
72128;DHT22;60000;51.030;7.024;2023-05-17T03:19:29;6.30;87.24
72128;DHT22;60000;51.030;7.024;2023-05-17T03:21:54;6.27;87.14
72128;DHT22;60000;51.030;7.024;2023-05-17T03:24:20;6.27;87.57
72128;DHT22;60000;51.030;7.024;2023-05-17T03:26:45;6.22;87.68
72128;DHT22;60000;51.030;7.024;2023-05-17T03:29:10;6.19;87.60
72128;DHT22;60000;51.030;7.024;2023-05-17T03:31:36;6.22;87.91
72128;DHT22;60000;51.030;7.024;2023-05-17T03:34:01;6.20;87.78
72128;DHT22;60000;51.030;7.024;2023-05-17T03:36:26;6.20;88.13
72128;DHT22;60000;51.030;7.024;2023-05-17T03:38:52;6.22;88.25
72128;DHT22;60000;51.030;7.024;2023-05-17T03:41:17;6.22;88.23
72128;DHT22;60000;51.030;7.024;2023-05-17T03:43:43;6.22;88.68
72128;DHT22;60000;51.030;7.024;2023-05-17T03:46:08;6.32;88.75
72128;DHT22;60000;51.030;7.024;2023-05-17T03:48:33;6.36;88.98
72128;DHT22;60000;51.030;7.024;2023-05-17T03:50:59;6.44;89.05
72128;DHT22;60000;51.030;7.024;2023-05-17T03:53:24;6.51;89.27
72128;DHT22;60000;51.030;7.024;2023-05-17T03:55:50;6.57;89.25
72128;DHT22;60000;51.030;7.024;2023-05-17T03:58:15;6.65;89.28
72128;DHT22;60000;51.030;7.024;2023-05-17T04:00:40;6.67;89.31
72128;DHT22;60000;51.030;7.024;2023-05-17T04:03:06;6.75;89.39
72128;DHT22;60000;51.030;7.024;2023-05-17T04:05:31;6.85;89.49
72128;DHT22;60000;51.030;7.024;2023-05-17T04:07:57;6.93;89.45
72128;DHT22;60000;51.030;7.024;2023-05-17T04:10:22;7.01;89.55
72128;DHT22;60000;51.030;7.024;2023-05-17T04:12:47;7.08;89.54
72128;DHT22;60000;51.030;7.024;2023-05-17T04:15:14;7.13;89.43
72128;DHT22;60000;51.030;7.024;2023-05-17T04:17:39;7.19;89.46
72128;DHT22;60000;51.030;7.024;2023-05-17T04:20:05;7.24;89.36
72128;DHT22;60000;51.030;7.024;2023-05-17T04:22:31;7.30;89.27
72128;DHT22;60000;51.030;7.024;2023-05-17T04:24:57;7.36;89.26
72128;DHT22;60000;51.030;7.024;2023-05-17T04:27:22;7.39;89.14
72128;DHT22;60000;51.030;7.024;2023-05-17T04:29:47;7.47;89.19
72128;DHT22;60000;51.030;7.024;2023-05-17T04:32:13;7.53;89.27
72128;DHT22;60000;51.030;7.024;2023-05-17T04:34:38;7.61;89.34
72128;DHT22;60000;51.030;7.024;2023-05-17T04:37:04;7.66;89.16
72128;DHT22;60000;51.030;7.024;2023-05-17T04:39:29;7.71;89.08
72128;DHT22;60000;51.030;7.024;2023-05-17T04:41:55;7.81;89.16
72128;DHT22;60000;51.030;7.024;2023-05-17T04:44:20;7.87;89.03
72128;DHT22;60000;51.030;7.024;2023-05-17T04:46:46;7.90;88.58
72128;DHT22;60000;51.030;7.024;2023-05-17T04:49:11;7.98;88.76
72128;DHT22;60000;51.030;7.024;2023-05-17T04:51:37;8.08;88.69
72128;DHT22;60000;51.030;7.024;2023-05-17T04:54:02;8.16;88.84
72128;DHT22;60000;51.030;7.024;2023-05-17T04:56:31;8.21;88.71
72128;DHT22;60000;51.030;7.024;2023-05-17T04:58:57;8.29;88.55
72128;DHT22;60000;51.030;7.024;2023-05-17T05:01:22;8.36;88.43
72128;DHT22;60000;51.030;7.024;2023-05-17T05:03:47;8.41;88.23
72128;DHT22;60000;51.030;7.024;2023-05-17T05:06:13;8.48;88.07
72128;DHT22;60000;51.030;7.024;2023-05-17T05:08:40;8.53;87.95
72128;DHT22;60000;51.030;7.024;2023-05-17T05:11:05;8.53;87.76
72128;DHT22;60000;51.030;7.024;2023-05-17T05:13:31;8.57;87.80
72128;DHT22;60000;51.030;7.024;2023-05-17T05:15:56;8.69;87.58
72128;DHT22;60000;51.030;7.024;2023-05-17T05:18:21;8.69;87.32
72128;DHT22;60000;51.030;7.024;2023-05-17T05:20:47;8.76;87.38
72128;DHT22;60000;51.030;7.024;2023-05-17T05:23:13;8.74;87.06
72128;DHT22;60000;51.030;7.024;2023-05-17T05:25:38;8.74;87.19
72128;DHT22;60000;51.030;7.024;2023-05-17T05:28:04;8.79;87.09
72128;DHT22;60000;51.030;7.024;2023-05-17T05:30:30;8.80;87.29
72128;DHT22;60000;51.030;7.024;2023-05-17T05:32:56;8.81;87.23
72128;DHT22;60000;51.030;7.024;2023-05-17T05:35:21;8.83;87.16
72128;DHT22;60000;51.030;7.024;2023-05-17T05:37:53;8.85;87.67
72128;DHT22;60000;51.030;7.024;2023-05-17T05:40:18;8.91;87.71
72128;DHT22;60000;51.030;7.024;2023-05-17T05:42:44;8.97;87.78
72128;DHT22;60000;51.030;7.024;2023-05-17T05:45:09;8.97;87.69
72128;DHT22;60000;51.030;7.024;2023-05-17T05:47:35;9.05;88.08
72128;DHT22;60000;51.030;7.024;2023-05-17T05:50:00;9.07;87.87
72128;DHT22;60000;51.030;7.024;2023-05-17T05:52:25;9.14;87.83
72128;DHT22;60000;51.030;7.024;2023-05-17T05:54:51;9.20;87.97
72128;DHT22;60000;51.030;7.024;2023-05-17T05:57:16;9.28;87.85
72128;DHT22;60000;51.030;7.024;2023-05-17T05:59:41;9.38;87.68
72128;DHT22;60000;51.030;7.024;2023-05-17T06:02:07;9.49;87.46
72128;DHT22;60000;51.030;7.024;2023-05-17T06:04:32;9.56;86.38
72128;DHT22;60000;51.030;7.024;2023-05-17T06:06:58;9.66;86.30
72128;DHT22;60000;51.030;7.024;2023-05-17T06:09:23;9.79;86.19
72128;DHT22;60000;51.030;7.024;2023-05-17T06:11:51;9.85;85.16
72128;DHT22;60000;51.030;7.024;2023-05-17T06:14:16;9.93;86.02
72128;DHT22;60000;51.030;7.024;2023-05-17T06:16:42;10.20;85.26
72128;DHT22;60000;51.030;7.024;2023-05-17T06:19:07;10.37;82.13
72128;DHT22;60000;51.030;7.024;2023-05-17T06:21:32;10.62;82.86
72128;DHT22;60000;51.030;7.024;2023-05-17T06:23:58;10.64;80.80
72128;DHT22;60000;51.030;7.024;2023-05-17T06:26:23;10.89;80.19
72128;DHT22;60000;51.030;7.024;2023-05-17T06:28:48;11.24;80.99
72128;DHT22;60000;51.030;7.024;2023-05-17T06:31:14;11.33;80.15
72128;DHT22;60000;51.030;7.024;2023-05-17T06:33:39;11.57;76.82
72128;DHT22;60000;51.030;7.024;2023-05-17T06:36:05;11.71;77.45
72128;DHT22;60000;51.030;7.024;2023-05-17T06:38:30;12.11;75.85
72128;DHT22;60000;51.030;7.024;2023-05-17T06:40:55;12.47;75.79
72128;DHT22;60000;51.030;7.024;2023-05-17T06:43:22;12.40;70.59
72128;DHT22;60000;51.030;7.024;2023-05-17T06:45:48;12.60;71.55
72128;DHT22;60000;51.030;7.024;2023-05-17T06:48:13;12.98;69.52
72128;DHT22;60000;51.030;7.024;2023-05-17T06:50:39;13.24;70.27
72128;DHT22;60000;51.030;7.024;2023-05-17T06:53:04;13.49;66.35
72128;DHT22;60000;51.030;7.024;2023-05-17T06:55:30;13.80;70.06
72128;DHT22;60000;51.030;7.024;2023-05-17T06:57:55;14.41;66.55
72128;DHT22;60000;51.030;7.024;2023-05-17T07:00:20;14.71;66.32
72128;DHT22;60000;51.030;7.024;2023-05-17T07:02:46;14.92;63.11
72128;DHT22;60000;51.030;7.024;2023-05-17T07:05:11;15.37;61.21
72128;DHT22;60000;51.030;7.024;2023-05-17T07:07:37;15.50;60.16
72128;DHT22;60000;51.030;7.024;2023-05-17T07:10:04;15.95;61.00
72128;DHT22;60000;51.030;7.024;2023-05-17T07:12:30;16.16;59.36
72128;DHT22;60000;51.030;7.024;2023-05-17T07:14:55;16.09;56.88
72128;DHT22;60000;51.030;7.024;2023-05-17T07:17:21;16.04;55.19
72128;DHT22;60000;51.030;7.024;2023-05-17T07:19:46;16.21;58.06
72128;DHT22;60000;51.030;7.024;2023-05-17T07:22:15;16.71;56.25
72128;DHT22;60000;51.030;7.024;2023-05-17T07:24:41;16.94;54.77
72128;DHT22;60000;51.030;7.024;2023-05-17T07:27:06;17.24;48.93
72128;DHT22;60000;51.030;7.024;2023-05-17T07:29:31;17.46;51.20
72128;DHT22;60000;51.030;7.024;2023-05-17T07:31:57;17.73;48.17
72128;DHT22;60000;51.030;7.024;2023-05-17T07:34:22;17.45;46.30
72128;DHT22;60000;51.030;7.024;2023-05-17T07:36:47;17.19;47.27
72128;DHT22;60000;51.030;7.024;2023-05-17T07:39:12;17.49;45.64
72128;DHT22;60000;51.030;7.024;2023-05-17T07:41:38;17.48;42.68
72128;DHT22;60000;51.030;7.024;2023-05-17T07:44:03;16.92;45.68
72128;DHT22;60000;51.030;7.024;2023-05-17T07:46:29;16.77;46.10
72128;DHT22;60000;51.030;7.024;2023-05-17T07:48:54;16.84;43.88
72128;DHT22;60000;51.030;7.024;2023-05-17T07:51:19;17.31;45.70
72128;DHT22;60000;51.030;7.024;2023-05-17T07:53:45;17.39;44.90
72128;DHT22;60000;51.030;7.024;2023-05-17T07:56:11;17.62;43.28
72128;DHT22;60000;51.030;7.024;2023-05-17T07:58:36;17.97;44.60
72128;DHT22;60000;51.030;7.024;2023-05-17T08:01:01;18.31;42.22
72128;DHT22;60000;51.030;7.024;2023-05-17T08:03:27;18.47;38.44
72128;DHT22;60000;51.030;7.024;2023-05-17T08:05:53;17.73;37.83
72128;DHT22;60000;51.030;7.024;2023-05-17T08:08:18;17.73;41.44
72128;DHT22;60000;51.030;7.024;2023-05-17T08:10:45;17.83;39.66
72128;DHT22;60000;51.030;7.024;2023-05-17T08:13:10;17.69;39.42
72128;DHT22;60000;51.030;7.024;2023-05-17T08:15:35;17.72;41.01
72128;DHT22;60000;51.030;7.024;2023-05-17T08:18:01;17.97;41.64
72128;DHT22;60000;51.030;7.024;2023-05-17T08:20:26;17.99;39.98
72128;DHT22;60000;51.030;7.024;2023-05-17T08:22:51;18.61;43.06
72128;DHT22;60000;51.030;7.024;2023-05-17T08:25:18;18.16;37.71
72128;DHT22;60000;51.030;7.024;2023-05-17T08:27:43;18.31;40.77
72128;DHT22;60000;51.030;7.024;2023-05-17T08:30:09;18.31;38.87
72128;DHT22;60000;51.030;7.024;2023-05-17T08:32:35;18.37;37.35
72128;DHT22;60000;51.030;7.024;2023-05-17T08:35:01;18.49;39.27
72128;DHT22;60000;51.030;7.024;2023-05-17T08:37:26;18.17;36.95
72128;DHT22;60000;51.030;7.024;2023-05-17T08:39:52;18.21;37.90
72128;DHT22;60000;51.030;7.024;2023-05-17T08:42:20;18.62;36.72
72128;DHT22;60000;51.030;7.024;2023-05-17T08:44:46;18.96;37.44
72128;DHT22;60000;51.030;7.024;2023-05-17T08:47:12;19.37;38.59
72128;DHT22;60000;51.030;7.024;2023-05-17T08:49:56;19.00;35.49
72128;DHT22;60000;51.030;7.024;2023-05-17T08:52:27;19.00;36.24
72128;DHT22;60000;51.030;7.024;2023-05-17T08:54:53;19.07;38.13
72128;DHT22;60000;51.030;7.024;2023-05-17T08:57:19;19.17;35.79
72128;DHT22;60000;51.030;7.024;2023-05-17T08:59:46;19.53;36.98
72128;DHT22;60000;51.030;7.024;2023-05-17T09:02:12;18.84;35.44
72128;DHT22;60000;51.030;7.024;2023-05-17T09:04:38;19.47;37.52
72128;DHT22;60000;51.030;7.024;2023-05-17T09:07:04;20.01;37.33
72128;DHT22;60000;51.030;7.024;2023-05-17T09:09:29;20.05;37.07
72128;DHT22;60000;51.030;7.024;2023-05-17T09:11:55;20.53;38.19
72128;DHT22;60000;51.030;7.024;2023-05-17T09:14:20;20.95;37.81
72128;DHT22;60000;51.030;7.024;2023-05-17T09:16:45;21.24;34.97
72128;DHT22;60000;51.030;7.024;2023-05-17T09:19:15;21.42;35.67
72128;DHT22;60000;51.030;7.024;2023-05-17T09:21:45;21.39;35.02
72128;DHT22;60000;51.030;7.024;2023-05-17T09:24:11;20.70;36.44
72128;DHT22;60000;51.030;7.024;2023-05-17T09:26:40;20.35;36.25
72128;DHT22;60000;51.030;7.024;2023-05-17T09:29:10;19.65;34.15
72128;DHT22;60000;51.030;7.024;2023-05-17T09:31:36;19.73;36.02
72128;DHT22;60000;51.030;7.024;2023-05-17T09:34:02;19.16;36.31
72128;DHT22;60000;51.030;7.024;2023-05-17T09:36:27;19.05;36.54
72128;DHT22;60000;51.030;7.024;2023-05-17T09:38:59;19.28;38.05
72128;DHT22;60000;51.030;7.024;2023-05-17T09:41:27;19.85;37.17
72128;DHT22;60000;51.030;7.024;2023-05-17T09:43:53;20.22;35.81
72128;DHT22;60000;51.030;7.024;2023-05-17T09:46:21;20.76;33.92
72128;DHT22;60000;51.030;7.024;2023-05-17T09:48:52;20.56;31.66
72128;DHT22;60000;51.030;7.024;2023-05-17T09:51:17;20.33;31.64
72128;DHT22;60000;51.030;7.024;2023-05-17T09:53:43;20.33;32.07
72128;DHT22;60000;51.030;7.024;2023-05-17T09:56:08;20.12;33.25
72128;DHT22;60000;51.030;7.024;2023-05-17T09:58:36;20.11;32.50
72128;DHT22;60000;51.030;7.024;2023-05-17T10:01:05;20.63;34.46
72128;DHT22;60000;51.030;7.024;2023-05-17T10:03:34;21.04;32.61
72128;DHT22;60000;51.030;7.024;2023-05-17T10:06:05;21.00;32.83
72128;DHT22;60000;51.030;7.024;2023-05-17T10:08:32;21.08;31.48
72128;DHT22;60000;51.030;7.024;2023-05-17T10:11:10;21.05;31.37
72128;DHT22;60000;51.030;7.024;2023-05-17T10:13:48;20.85;30.06
72128;DHT22;60000;51.030;7.024;2023-05-17T10:16:14;21.08;33.69
72128;DHT22;60000;51.030;7.024;2023-05-17T10:18:40;21.20;30.83
72128;DHT22;60000;51.030;7.024;2023-05-17T10:21:07;20.57;32.24
72128;DHT22;60000;51.030;7.024;2023-05-17T10:23:33;19.50;34.21
72128;DHT22;60000;51.030;7.024;2023-05-17T10:25:58;19.89;38.07
72128;DHT22;60000;51.030;7.024;2023-05-17T10:28:25;20.45;34.65
72128;DHT22;60000;51.030;7.024;2023-05-17T10:30:52;20.97;35.67
72128;DHT22;60000;51.030;7.024;2023-05-17T10:33:19;21.37;34.61
72128;DHT22;60000;51.030;7.024;2023-05-17T10:35:46;21.65;33.01
72128;DHT22;60000;51.030;7.024;2023-05-17T10:38:13;21.25;30.73
72128;DHT22;60000;51.030;7.024;2023-05-17T10:40:39;20.28;34.80
72128;DHT22;60000;51.030;7.024;2023-05-17T10:43:07;20.30;36.78
72128;DHT22;60000;51.030;7.024;2023-05-17T10:45:35;20.74;35.44
72128;DHT22;60000;51.030;7.024;2023-05-17T10:48:04;21.04;33.44
72128;DHT22;60000;51.030;7.024;2023-05-17T10:50:30;20.28;31.78
72128;DHT22;60000;51.030;7.024;2023-05-17T10:52:57;19.99;32.74
72128;DHT22;60000;51.030;7.024;2023-05-17T10:55:25;19.77;32.63
72128;DHT22;60000;51.030;7.024;2023-05-17T10:58:11;19.28;35.25
72128;DHT22;60000;51.030;7.024;2023-05-17T11:00:40;19.78;35.20
72128;DHT22;60000;51.030;7.024;2023-05-17T11:03:24;20.50;37.42
72128;DHT22;60000;51.030;7.024;2023-05-17T11:08:34;21.21;31.67
72128;DHT22;60000;51.030;7.024;2023-05-17T11:11:18;20.77;34.14
72128;DHT22;60000;51.030;7.024;2023-05-17T11:13:51;20.37;34.97
72128;DHT22;60000;51.030;7.024;2023-05-17T11:16:34;20.02;33.33
72128;DHT22;60000;51.030;7.024;2023-05-17T11:19:10;19.51;34.21
72128;DHT22;60000;51.030;7.024;2023-05-17T11:21:44;19.09;33.52
72128;DHT22;60000;51.030;7.024;2023-05-17T11:24:12;19.23;34.82
72128;DHT22;60000;51.030;7.024;2023-05-17T11:26:44;19.85;36.47
72128;DHT22;60000;51.030;7.024;2023-05-17T11:29:10;20.23;33.09
72128;DHT22;60000;51.030;7.024;2023-05-17T11:31:42;20.02;33.07
72128;DHT22;60000;51.030;7.024;2023-05-17T11:34:08;19.27;34.84
72128;DHT22;60000;51.030;7.024;2023-05-17T11:36:51;18.88;34.61
72128;DHT22;60000;51.030;7.024;2023-05-17T11:39:20;18.94;37.57
72128;DHT22;60000;51.030;7.024;2023-05-17T11:41:51;19.19;36.13
72128;DHT22;60000;51.030;7.024;2023-05-17T11:44:30;19.88;37.94
72128;DHT22;60000;51.030;7.024;2023-05-17T11:47:02;20.12;34.37
72128;DHT22;60000;51.030;7.024;2023-05-17T11:49:30;19.92;31.76
72128;DHT22;60000;51.030;7.024;2023-05-17T11:51:59;19.79;33.82
72128;DHT22;60000;51.030;7.024;2023-05-17T11:54:25;20.32;34.59
72128;DHT22;60000;51.030;7.024;2023-05-17T11:56:53;20.81;34.50
72128;DHT22;60000;51.030;7.024;2023-05-17T11:59:19;21.21;33.83
72128;DHT22;60000;51.030;7.024;2023-05-17T12:01:46;21.30;31.51
72128;DHT22;60000;51.030;7.024;2023-05-17T12:04:12;20.83;34.13
72128;DHT22;60000;51.030;7.024;2023-05-17T12:06:37;20.45;33.38
72128;DHT22;60000;51.030;7.024;2023-05-17T12:09:03;20.72;33.96
72128;DHT22;60000;51.030;7.024;2023-05-17T12:11:34;20.94;31.80
72128;DHT22;60000;51.030;7.024;2023-05-17T12:14:00;21.10;32.76
72128;DHT22;60000;51.030;7.024;2023-05-17T12:16:25;21.55;33.22
72128;DHT22;60000;51.030;7.024;2023-05-17T12:18:51;21.61;32.51
72128;DHT22;60000;51.030;7.024;2023-05-17T12:21:17;21.31;32.90
72128;DHT22;60000;51.030;7.024;2023-05-17T12:23:46;21.12;30.68
72128;DHT22;60000;51.030;7.024;2023-05-17T12:26:16;21.10;33.51
72128;DHT22;60000;51.030;7.024;2023-05-17T12:28:51;21.24;33.16
72128;DHT22;60000;51.030;7.024;2023-05-17T12:33:50;21.27;30.35
72128;DHT22;60000;51.030;7.024;2023-05-17T12:36:16;20.25;30.19
72128;DHT22;60000;51.030;7.024;2023-05-17T12:38:43;19.99;33.49
72128;DHT22;60000;51.030;7.024;2023-05-17T12:41:10;19.61;34.55
72128;DHT22;60000;51.030;7.024;2023-05-17T12:43:39;19.15;35.94
72128;DHT22;60000;51.030;7.024;2023-05-17T12:46:12;18.98;33.94
72128;DHT22;60000;51.030;7.024;2023-05-17T12:48:40;18.75;35.47
72128;DHT22;60000;51.030;7.024;2023-05-17T12:53:43;18.81;33.82
72128;DHT22;60000;51.030;7.024;2023-05-17T12:56:39;18.79;34.62
72128;DHT22;60000;51.030;7.024;2023-05-17T12:59:13;19.12;36.90
72128;DHT22;60000;51.030;7.024;2023-05-17T13:01:46;19.10;34.83
72128;DHT22;60000;51.030;7.024;2023-05-17T13:04:12;19.41;33.92
72128;DHT22;60000;51.030;7.024;2023-05-17T13:09:11;19.75;34.07
72128;DHT22;60000;51.030;7.024;2023-05-17T13:11:37;20.08;33.03
72128;DHT22;60000;51.030;7.024;2023-05-17T13:14:09;20.30;34.29
72128;DHT22;60000;51.030;7.024;2023-05-17T13:16:38;20.46;33.91
72128;DHT22;60000;51.030;7.024;2023-05-17T13:19:11;20.60;33.70
72128;DHT22;60000;51.030;7.024;2023-05-17T13:21:37;20.08;30.03
72128;DHT22;60000;51.030;7.024;2023-05-17T13:24:02;19.95;34.26
72128;DHT22;60000;51.030;7.024;2023-05-17T13:26:27;19.33;32.22
72128;DHT22;60000;51.030;7.024;2023-05-17T13:28:53;19.05;33.76
72128;DHT22;60000;51.030;7.024;2023-05-17T13:31:18;19.09;34.43
72128;DHT22;60000;51.030;7.024;2023-05-17T13:33:43;19.26;35.70
72128;DHT22;60000;51.030;7.024;2023-05-17T13:36:09;19.50;34.58
72128;DHT22;60000;51.030;7.024;2023-05-17T13:38:34;19.61;34.20
72128;DHT22;60000;51.030;7.024;2023-05-17T13:41:00;19.74;33.99
72128;DHT22;60000;51.030;7.024;2023-05-17T13:43:25;19.82;31.88
72128;DHT22;60000;51.030;7.024;2023-05-17T13:45:51;19.86;33.25
72128;DHT22;60000;51.030;7.024;2023-05-17T13:48:21;19.89;34.03
72128;DHT22;60000;51.030;7.024;2023-05-17T13:50:46;19.84;33.08
72128;DHT22;60000;51.030;7.024;2023-05-17T13:53:11;19.96;33.99
72128;DHT22;60000;51.030;7.024;2023-05-17T13:55:37;19.95;33.17
72128;DHT22;60000;51.030;7.024;2023-05-17T13:58:03;19.64;30.97
72128;DHT22;60000;51.030;7.024;2023-05-17T14:00:29;19.20;31.97
72128;DHT22;60000;51.030;7.024;2023-05-17T14:02:54;19.34;34.44
72128;DHT22;60000;51.030;7.024;2023-05-17T14:05:19;19.60;35.76
72128;DHT22;60000;51.030;7.024;2023-05-17T14:07:45;19.75;34.44
72128;DHT22;60000;51.030;7.024;2023-05-17T14:10:10;19.57;32.91
72128;DHT22;60000;51.030;7.024;2023-05-17T14:12:37;19.50;31.58
72128;DHT22;60000;51.030;7.024;2023-05-17T14:15:03;19.55;32.41
72128;DHT22;60000;51.030;7.024;2023-05-17T14:17:28;19.68;33.04
72128;DHT22;60000;51.030;7.024;2023-05-17T14:19:54;19.79;34.15
72128;DHT22;60000;51.030;7.024;2023-05-17T14:22:20;19.55;32.38
72128;DHT22;60000;51.030;7.024;2023-05-17T14:24:45;19.30;34.11
72128;DHT22;60000;51.030;7.024;2023-05-17T14:27:10;19.22;33.31
72128;DHT22;60000;51.030;7.024;2023-05-17T14:29:36;19.17;34.18
72128;DHT22;60000;51.030;7.024;2023-05-17T14:32:01;19.20;34.11
72128;DHT22;60000;51.030;7.024;2023-05-17T14:34:26;19.16;33.31
72128;DHT22;60000;51.030;7.024;2023-05-17T14:36:52;19.23;33.94
72128;DHT22;60000;51.030;7.024;2023-05-17T14:39:17;19.13;33.09
72128;DHT22;60000;51.030;7.024;2023-05-17T14:41:42;19.37;35.18
72128;DHT22;60000;51.030;7.024;2023-05-17T14:44:08;19.27;32.63
72128;DHT22;60000;51.030;7.024;2023-05-17T14:46:33;19.34;34.17
72128;DHT22;60000;51.030;7.024;2023-05-17T14:48:59;19.38;34.23
72128;DHT22;60000;51.030;7.024;2023-05-17T14:51:24;19.03;33.89
72128;DHT22;60000;51.030;7.024;2023-05-17T14:53:49;18.79;33.30
72128;DHT22;60000;51.030;7.024;2023-05-17T14:56:15;18.64;34.94
72128;DHT22;60000;51.030;7.024;2023-05-17T14:58:42;18.51;34.23
72128;DHT22;60000;51.030;7.024;2023-05-17T15:01:07;18.65;34.65
72128;DHT22;60000;51.030;7.024;2023-05-17T15:03:33;18.62;34.49
72128;DHT22;60000;51.030;7.024;2023-05-17T15:05:59;18.71;35.85
72128;DHT22;60000;51.030;7.024;2023-05-17T15:08:26;18.91;35.08
72128;DHT22;60000;51.030;7.024;2023-05-17T15:10:51;18.96;35.34
72128;DHT22;60000;51.030;7.024;2023-05-17T15:13:18;18.95;33.20
72128;DHT22;60000;51.030;7.024;2023-05-17T15:15:43;18.73;33.66
72128;DHT22;60000;51.030;7.024;2023-05-17T15:18:09;18.89;34.23
72128;DHT22;60000;51.030;7.024;2023-05-17T15:20:36;18.85;33.32
72128;DHT22;60000;51.030;7.024;2023-05-17T15:23:02;18.73;33.84
72128;DHT22;60000;51.030;7.024;2023-05-17T15:25:27;18.73;34.76
72128;DHT22;60000;51.030;7.024;2023-05-17T15:27:52;18.89;36.36
72128;DHT22;60000;51.030;7.024;2023-05-17T15:30:18;18.88;35.44
72128;DHT22;60000;51.030;7.024;2023-05-17T15:32:44;18.88;34.96
72128;DHT22;60000;51.030;7.024;2023-05-17T15:35:10;19.03;35.58
72128;DHT22;60000;51.030;7.024;2023-05-17T15:37:35;18.92;34.75
72128;DHT22;60000;51.030;7.024;2023-05-17T15:40:06;18.71;33.48
72128;DHT22;60000;51.030;7.024;2023-05-17T15:42:33;18.45;35.00
72128;DHT22;60000;51.030;7.024;2023-05-17T15:44:58;18.17;33.77